Time;durP1;ratioP1;P1;durP2;ratioP2;P2;SDS_P1;SDS_P2;PMS_P1;PMS_P2;Temp;Humidity;BMP_temperature;BMP_pressure;BME280_temperature;BME280_humidity;BME280_pressure;Samples;Min_cycle;Max_cycle;Signal;HPM_P1;HPM_P2
2021/12/01 00:00:50;;;;;;;1.15;0.95;;;;;;;2.72;84.76;97405.97;2579428;28;20081;-75
2021/12/01 00:02:06;;;;;;;1.27;0.90;;;;;;;2.71;85.08;97406.88;2579641;28;20055;-75
2021/12/01 00:03:22;;;;;;;0.80;0.80;;;;;;;2.74;84.81;97405.09;2579401;28;21040;-75
2021/12/01 00:04:37;;;;;;;1.05;0.80;;;;;;;2.74;84.82;97404.22;2579488;28;20478;-74
2021/12/01 00:05:53;;;;;;;1.02;0.90;;;;;;;2.74;84.80;97397.34;2579433;28;20128;-74
2021/12/01 00:07:09;;;;;;;0.93;0.70;;;;;;;2.77;84.94;97396.44;2579217;28;20077;-75
2021/12/01 00:08:24;;;;;;;1.45;0.88;;;;;;;2.77;84.84;97397.28;2579249;28;20050;-75
2021/12/01 00:09:40;;;;;;;1.52;0.80;;;;;;;2.75;85.05;97398.19;2578434;28;20108;-75
2021/12/01 00:10:56;;;;;;;1.02;0.60;;;;;;;2.75;85.03;97399.06;2578460;28;20097;-74
2021/12/01 00:12:11;;;;;;;0.88;0.50;;;;;;;2.75;85.21;97393.00;2579122;28;20054;-75
2021/12/01 00:13:28;;;;;;;1.65;0.80;;;;;;;2.75;85.10;97395.59;2579107;28;20485;-74
2021/12/01 00:14:44;;;;;;;1.13;0.82;;;;;;;2.76;85.08;97392.13;2578974;28;20585;-75
2021/12/01 00:16:01;;;;;;;1.00;0.80;;;;;;;2.69;85.38;97399.13;2579245;28;20046;-74
2021/12/01 00:17:16;;;;;;;2.03;1.00;;;;;;;2.71;85.40;97391.34;2579221;28;20469;-75
2021/12/01 00:18:32;;;;;;;0.93;0.73;;;;;;;2.77;85.21;97401.59;2579540;28;20046;-76
2021/12/01 00:19:47;;;;;;;1.27;0.95;;;;;;;2.72;84.84;97401.66;2578893;28;20081;-74
2021/12/01 00:21:03;;;;;;;2.47;0.88;;;;;;;2.70;85.35;97403.41;2579143;28;20097;-74
2021/12/01 00:22:20;;;;;;;1.08;0.70;;;;;;;2.74;85.24;97402.50;2579209;28;20054;-76
2021/12/01 00:23:35;;;;;;;1.35;0.80;;;;;;;2.69;85.58;97404.28;2579273;28;20042;-75
2021/12/01 00:24:51;;;;;;;0.90;0.68;;;;;;;2.68;85.75;97403.44;2579325;28;20050;-74
2021/12/01 00:26:07;;;;;;;1.17;0.80;;;;;;;2.74;85.48;97399.94;2578961;28;20054;-75
2021/12/01 00:27:23;;;;;;;0.95;0.63;;;;;;;2.77;85.20;97401.59;2578851;28;20544;-75
2021/12/01 00:28:38;;;;;;;0.70;0.70;;;;;;;2.74;85.32;97401.66;2579247;28;20053;-75
2021/12/01 00:29:56;;;;;;;0.80;0.60;;;;;;;2.70;85.52;97400.81;2579033;28;20050;-75
2021/12/01 00:31:11;;;;;;;1.98;0.50;;;;;;;2.67;85.39;97395.69;2579248;28;20077;-75
2021/12/01 00:32:28;;;;;;;1.15;0.80;;;;;;;2.58;85.97;97396.69;2578876;28;20061;-76
2021/12/01 00:33:44;;;;;;;0.85;0.65;;;;;;;2.54;86.26;97395.03;2578915;28;20046;-75
2021/12/01 00:35:01;;;;;;;0.63;0.63;;;;;;;2.46;86.52;97400.28;2578707;28;20042;-74
2021/12/01 00:36:17;;;;;;;0.82;0.70;;;;;;;2.37;86.63;97393.47;2579237;28;20437;-77
2021/12/01 00:37:33;;;;;;;1.00;0.82;;;;;;;2.31;86.94;97398.72;2579049;28;20054;-75
2021/12/01 00:38:48;;;;;;;1.20;0.80;;;;;;;2.25;86.90;97406.56;2579145;28;20050;-74
2021/12/01 00:40:07;;;;;;;0.52;0.52;;;;;;;2.22;87.25;97398.81;2578903;28;20060;-75
2021/12/01 00:41:23;;;;;;;1.10;0.98;;;;;;;2.18;87.64;97397.16;2579009;28;20046;-75
2021/12/01 00:42:40;;;;;;;0.98;0.88;;;;;;;2.14;87.56;97391.16;2579279;28;20054;-74
2021/12/01 00:43:55;;;;;;;0.80;0.70;;;;;;;2.11;87.54;97398.94;2578814;28;20054;-75
2021/12/01 00:45:20;;;;;;;1.77;0.90;;;;;;;2.09;87.74;97403.28;2579092;28;20513;-75
2021/12/01 00:46:41;;;;;;;1.15;0.88;;;;;;;2.08;87.79;97392.09;2578889;28;20058;-75
2021/12/01 00:47:56;;;;;;;3.03;1.35;;;;;;;2.12;88.13;97403.25;2578873;28;20065;-75
2021/12/01 00:49:12;;;;;;;1.25;0.88;;;;;;;2.10;88.17;97395.53;2578725;28;20046;-74
2021/12/01 00:50:34;;;;;;;1.52;1.13;;;;;;;2.09;88.20;97393.78;2578904;28;20069;-75
2021/12/01 00:51:50;;;;;;;2.22;1.30;;;;;;;2.09;87.93;97393.78;2578622;28;20454;-75
2021/12/01 00:53:07;;;;;;;1.52;1.23;;;;;;;2.07;88.29;97394.69;2579164;28;20058;-75
2021/12/01 00:54:23;;;;;;;1.95;1.30;;;;;;;2.06;88.46;97398.16;2578913;28;20050;-75
2021/12/01 00:55:41;;;;;;;2.67;1.50;;;;;;;2.05;88.37;97402.44;2578790;28;20069;-75
2021/12/01 00:56:57;;;;;;;2.10;1.60;;;;;;;2.04;88.33;97402.50;2578937;28;20049;-75
2021/12/01 00:58:14;;;;;;;2.00;1.77;;;;;;;2.01;88.52;97398.19;2578721;28;20065;-74
2021/12/01 00:59:29;;;;;;;2.72;1.80;;;;;;;2.01;88.53;97399.91;2578641;28;20047;-75
2021/12/01 01:00:48;;;;;;;3.65;2.38;;;;;;;2.00;88.79;97393.03;2578913;28;20477;-74
2021/12/01 01:02:04;;;;;;;3.45;2.30;;;;;;;1.99;88.83;97397.38;2578968;28;20069;-74
2021/12/01 01:03:21;;;;;;;3.75;2.40;;;;;;;2.01;88.98;97398.19;2579231;28;20104;-74
2021/12/01 01:04:36;;;;;;;4.18;2.13;;;;;;;1.99;88.82;97397.38;2578884;28;20055;-75
2021/12/01 01:05:52;;;;;;;4.20;2.33;;;;;;;1.97;89.02;97384.47;2578975;28;20085;-74
2021/12/01 01:07:07;;;;;;;4.43;2.47;;;;;;;1.99;89.12;97389.63;2578911;28;20057;-74
2021/12/01 01:08:23;;;;;;;4.32;2.50;;;;;;;1.98;89.13;97391.34;2578826;28;20050;-75
2021/12/01 01:09:40;;;;;;;4.72;2.42;;;;;;;2.01;89.01;97394.75;2578860;28;20494;-75
2021/12/01 01:16:58;;;;;;;1.40;1.05;;;;;;;2.72;86.26;97383.56;2578922;28;20053;-76
2021/12/01 01:18:14;;;;;;;1.45;0.90;;;;;;;2.82;85.75;97382.56;2578611;28;20058;-75
2021/12/01 01:19:30;;;;;;;1.83;1.20;;;;;;;2.86;85.28;97385.97;2578600;28;20108;-75
2021/12/01 01:20:45;;;;;;;3.65;1.40;;;;;;;2.92;85.41;97375.53;2579045;28;20069;-75
2021/12/01 01:22:03;;;;;;;1.40;1.25;;;;;;;2.93;85.27;97379.84;2578788;28;20138;-74
2021/12/01 01:23:18;;;;;;;2.03;1.30;;;;;;;3.00;84.92;97382.34;2578566;28;20141;-75
2021/12/01 01:24:35;;;;;;;2.63;1.70;;;;;;;2.96;84.82;97369.47;2578255;28;20062;-75
2021/12/01 01:25:51;;;;;;;2.40;1.80;;;;;;;2.97;84.94;97384.09;2578585;28;20050;-74
2021/12/01 01:27:07;;;;;;;2.63;1.83;;;;;;;2.87;85.31;97377.34;2578618;28;20054;-75
2021/12/01 01:28:23;;;;;;;2.20;1.38;;;;;;;2.92;85.57;97374.69;2578915;28;20054;-75
2021/12/01 01:29:38;;;;;;;1.55;1.00;;;;;;;2.89;85.29;97375.59;2578329;28;20117;-74
2021/12/01 01:30:55;;;;;;;1.25;0.85;;;;;;;2.99;84.84;97370.28;2578764;28;20413;-75
2021/12/01 01:32:11;;;;;;;1.20;0.70;;;;;;;3.05;84.40;97370.19;2578691;28;20966;-74
2021/12/01 01:33:26;;;;;;;1.05;0.80;;;;;;;3.09;84.32;97367.53;2578434;28;20089;-74
2021/12/01 01:34:42;;;;;;;1.40;1.10;;;;;;;3.08;84.42;97365.81;2578057;28;20054;-75
2021/12/01 01:35:58;;;;;;;1.95;0.98;;;;;;;3.11;84.63;97367.50;2578701;28;20053;-75
2021/12/01 01:37:14;;;;;;;0.70;0.70;;;;;;;3.11;84.00;97362.34;2578703;28;20061;-75
2021/12/01 01:38:32;;;;;;;2.67;1.15;;;;;;;3.05;84.55;97365.00;2578836;28;20149;-74
2021/12/01 01:39:47;;;;;;;1.38;1.20;;;;;;;3.11;84.61;97357.16;2578362;28;20137;-75
2021/12/01 01:41:06;;;;;;;1.75;1.00;;;;;;;3.12;84.41;97369.22;2578646;28;20097;-75
2021/12/01 01:42:22;;;;;;;2.03;0.93;;;;;;;3.13;84.37;97362.31;2578149;28;20513;-75
2021/12/01 01:43:39;;;;;;;1.45;1.10;;;;;;;3.06;84.62;97358.94;2578333;28;20473;-75
2021/12/01 01:44:55;;;;;;;1.10;0.90;;;;;;;3.02;84.73;97362.47;2578650;28;20054;-74
2021/12/01 01:46:11;;;;;;;1.25;0.93;;;;;;;3.03;84.78;97359.88;2578264;28;20390;-75
2021/12/01 01:47:27;;;;;;;1.02;0.90;;;;;;;3.15;84.32;97358.81;2578043;28;20702;-75
2021/12/01 01:48:56;;;;;;;0.85;0.85;;;;;;;3.20;84.18;97363.94;2578798;28;20054;-74
2021/12/01 01:50:46;;;;;;;2.55;1.10;;;;;;;3.20;84.08;97358.75;2578498;28;20524;-75
2021/12/01 01:51:54;;;;;;;1.10;0.90;;;;;;;3.10;84.47;97360.63;2575933;28;20575;-75
2021/12/01 01:53:13;;;;;;;1.45;0.98;;;;;;;3.07;84.95;97368.41;2578429;28;20043;-75
2021/12/01 01:54:28;;;;;;;1.63;1.20;;;;;;;3.16;84.52;97364.88;2578302;28;20197;-74
2021/12/01 01:55:46;;;;;;;1.20;1.02;;;;;;;3.15;84.47;97358.81;2578627;28;20382;-74
2021/12/01 01:57:02;;;;;;;1.13;0.90;;;;;;;3.20;84.09;97358.75;2578170;28;20054;-75
2021/12/01 01:58:18;;;;;;;0.90;0.90;;;;;;;3.27;83.79;97359.50;2578666;28;20493;-75
2021/12/01 01:59:33;;;;;;;1.10;0.73;;;;;;;3.22;84.15;97357.00;2578253;28;20054;-78
2021/12/01 02:01:06;;;;;;;1.33;0.90;;;;;;;3.26;84.00;97356.06;2578482;28;20054;-74
2021/12/01 02:02:21;;;;;;;1.75;1.30;;;;;;;3.27;83.97;97350.00;2577771;28;20408;-75
2021/12/01 02:03:40;;;;;;;1.23;1.10;;;;;;;3.31;84.13;97349.09;2578292;28;20092;-76
2021/12/01 02:04:56;;;;;;;1.50;1.00;;;;;;;3.30;83.89;97342.22;2578042;28;20053;-75
2021/12/01 02:06:14;;;;;;;1.45;1.20;;;;;;;3.34;84.07;97345.59;2578416;28;20097;-75
2021/12/01 02:07:29;;;;;;;1.15;1.05;;;;;;;3.35;84.12;97349.88;2578470;28;20077;-75
2021/12/01 02:08:45;;;;;;;1.45;1.05;;;;;;;3.35;83.72;97345.56;2578115;28;20052;-75
2021/12/01 02:10:02;;;;;;;1.48;1.38;;;;;;;3.36;84.43;97355.03;2578088;28;20050;-74
2021/12/01 02:11:19;;;;;;;1.23;1.00;;;;;;;3.32;84.20;97345.63;2577946;28;20093;-76
2021/12/01 02:12:39;;;;;;;1.23;1.05;;;;;;;3.34;84.14;97348.16;2578416;28;20046;-75
2021/12/01 02:13:55;;;;;;;1.50;1.10;;;;;;;3.33;84.28;97339.56;2577961;28;20081;-75
2021/12/01 02:15:10;;;;;;;1.27;0.95;;;;;;;3.37;84.27;97342.97;2578150;28;20061;-75
2021/12/01 02:16:26;;;;;;;1.30;1.20;;;;;;;3.40;84.24;97340.31;2578273;28;20520;-75
2021/12/01 02:17:42;;;;;;;1.45;1.25;;;;;;;3.39;84.16;97338.63;2578461;28;20055;-75
2021/12/01 02:18:58;;;;;;;1.92;1.05;;;;;;;3.41;84.38;97334.25;2578268;28;20446;-75
2021/12/01 02:20:19;;;;;;;1.10;1.00;;;;;;;3.43;84.39;97334.25;2577741;28;20108;-75
2021/12/01 02:21:35;;;;;;;1.38;1.08;;;;;;;3.42;84.28;97337.69;2578380;28;20072;-75
2021/12/01 02:22:50;;;;;;;1.35;1.25;;;;;;;3.43;84.26;97332.50;2578308;28;20046;-75
2021/12/01 02:24:09;;;;;;;0.95;0.85;;;;;;;3.42;84.42;97333.38;2578264;28;20224;-75
2021/12/01 02:25:25;;;;;;;1.48;1.38;;;;;;;3.36;84.37;97325.75;2578461;28;20485;-75
2021/12/01 02:26:44;;;;;;;1.30;1.20;;;;;;;3.40;84.78;97335.16;2578275;28;20129;-75
2021/12/01 02:28:00;;;;;;;1.40;0.90;;;;;;;3.38;84.54;97319.63;2577749;28;20057;-75
2021/12/01 02:29:19;;;;;;;1.80;1.23;;;;;;;3.43;84.69;97316.13;2578021;28;20108;-75
2021/12/01 02:30:35;;;;;;;1.30;1.20;;;;;;;3.46;84.61;97310.91;2578126;28;20096;-75
2021/12/01 02:31:52;;;;;;;1.42;1.30;;;;;;;3.44;84.63;97300.56;2578374;28;20054;-75
2021/12/01 02:33:07;;;;;;;1.63;1.20;;;;;;;3.46;84.69;97305.72;2578027;28;20073;-75
2021/12/01 02:34:24;;;;;;;1.23;1.02;;;;;;;3.44;84.50;97302.31;2578028;28;20054;-75
2021/12/01 02:35:40;;;;;;;1.67;1.15;;;;;;;3.43;84.46;97296.28;2578226;28;20137;-77
2021/12/01 02:36:58;;;;;;;1.30;1.10;;;;;;;3.45;84.68;97304.03;2578263;28;20502;-74
2021/12/01 02:38:13;;;;;;;1.98;1.20;;;;;;;3.45;84.85;97309.19;2577250;28;20047;-74
2021/12/01 02:39:29;;;;;;;1.55;1.20;;;;;;;3.45;84.52;97297.09;2577862;28;20486;-78
2021/12/01 02:40:46;;;;;;;1.00;0.82;;;;;;;3.48;84.04;97296.19;2577728;28;20077;-74
2021/12/01 02:42:07;;;;;;;1.17;1.00;;;;;;;3.49;84.17;97293.59;2577898;28;20066;-75
2021/12/01 02:43:29;;;;;;;1.52;0.98;;;;;;;3.49;84.04;97291.00;2567081;28;20051;-75
2021/12/01 02:44:46;;;;;;;1.27;1.10;;;;;;;3.49;84.17;97292.72;2572156;28;20080;-74
2021/12/01 02:46:01;;;;;;;2.25;1.27;;;;;;;3.50;83.96;97295.28;2578061;28;20046;-74
2021/12/01 02:47:17;;;;;;;1.20;0.98;;;;;;;3.51;84.11;97301.31;2577419;28;20042;-80
2021/12/01 02:48:41;;;;;;;1.65;1.45;;;;;;;3.55;84.11;97296.94;2578033;28;20050;-75
2021/12/01 02:49:57;;;;;;;1.40;1.20;;;;;;;3.55;84.26;97300.38;2577943;28;20159;-75
2021/12/01 02:51:13;;;;;;;0.80;0.80;;;;;;;3.56;83.75;97291.72;2577788;28;20069;-76
2021/12/01 02:52:34;;;;;;;0.93;0.82;;;;;;;3.58;83.82;97300.34;2577905;28;20054;-75
2021/12/01 02:53:50;;;;;;;1.45;1.02;;;;;;;3.57;83.99;97295.16;2578265;28;20478;-74
2021/12/01 02:55:09;;;;;;;1.33;1.02;;;;;;;3.55;84.34;97296.94;2577959;28;20054;-75
2021/12/01 02:56:25;;;;;;;2.00;1.10;;;;;;;3.60;83.78;97298.56;2578136;28;20088;-74
2021/12/01 02:57:52;;;;;;;1.45;0.80;;;;;;;3.58;83.54;97297.75;2577675;28;20058;-75
2021/12/01 02:59:08;;;;;;;1.38;1.27;;;;;;;3.62;83.65;97293.34;2577765;28;20053;-75
2021/12/01 03:00:23;;;;;;;1.92;1.15;;;;;;;3.62;83.60;97294.22;2578239;28;20060;-75
2021/12/01 03:01:39;;;;;;;1.52;1.17;;;;;;;3.58;83.64;97291.69;2577620;28;20100;-75
2021/12/01 03:02:56;;;;;;;1.30;1.20;;;;;;;3.57;83.88;97298.63;2577962;28;20078;-75
2021/12/01 03:04:14;;;;;;;1.05;0.95;;;;;;;3.64;83.52;97292.44;2577864;28;20042;-74
2021/12/01 03:05:30;;;;;;;1.30;1.00;;;;;;;3.69;83.75;97297.53;2578215;28;20042;-75
2021/12/01 03:06:49;;;;;;;1.25;0.90;;;;;;;3.67;83.39;97288.94;2577747;28;20077;-76
2021/12/01 03:08:07;;;;;;;1.40;0.77;;;;;;;3.70;83.03;97286.28;2578101;28;20520;-75
2021/12/01 03:09:23;;;;;;;1.48;1.20;;;;;;;3.71;82.70;97282.81;2577688;28;20050;-75
2021/12/01 03:10:38;;;;;;;0.80;0.80;;;;;;;3.71;82.79;97279.41;2577728;28;20709;-75
2021/12/01 03:11:54;;;;;;;0.75;0.75;;;;;;;3.70;82.18;97273.34;2577727;28;20117;-75
2021/12/01 03:13:10;;;;;;;3.50;0.65;;;;;;;3.72;82.54;97270.75;2577836;28;20679;-75
2021/12/01 03:14:26;;;;;;;0.95;0.90;;;;;;;3.73;82.54;97275.03;2578005;28;20051;-75
2021/12/01 03:15:42;;;;;;;1.10;0.82;;;;;;;3.72;82.72;97279.34;2577884;28;20050;-75
2021/12/01 03:16:57;;;;;;;1.15;0.80;;;;;;;3.78;82.43;97286.16;2578104;28;20046;-75
2021/12/01 03:18:14;;;;;;;0.68;0.57;;;;;;;3.73;82.25;97281.06;2577808;28;21222;-77
2021/12/01 03:19:30;;;;;;;1.23;1.00;;;;;;;3.73;82.90;97280.22;2577711;28;20555;-76
2021/12/01 03:20:46;;;;;;;1.30;0.75;;;;;;;3.71;82.89;97281.97;2578041;28;20053;-75
2021/12/01 03:22:02;;;;;;;0.80;0.73;;;;;;;3.70;82.86;97281.13;2578161;28;20057;-76
2021/12/01 03:23:19;;;;;;;1.70;0.98;;;;;;;3.68;82.95;97273.38;2577700;28;20129;-76
2021/12/01 03:24:34;;;;;;;0.80;0.70;;;;;;;3.70;83.01;97273.34;2577719;28;20058;-75
2021/12/01 03:25:50;;;;;;;0.90;0.60;;;;;;;3.72;81.91;97262.97;2578001;28;20054;-76
2021/12/01 03:27:06;;;;;;;2.85;0.90;;;;;;;3.75;82.56;97268.09;2578121;28;20050;-75
2021/12/01 03:28:22;;;;;;;1.10;0.90;;;;;;;3.77;82.64;97268.91;2577982;28;20047;-75
2021/12/01 03:29:38;;;;;;;0.80;0.75;;;;;;;3.74;82.61;97254.28;2578051;28;20050;-75
2021/12/01 03:30:53;;;;;;;1.17;0.90;;;;;;;3.76;82.84;97256.84;2577234;28;20069;-75
2021/12/01 03:32:10;;;;;;;0.90;0.80;;;;;;;3.79;82.76;97260.25;2577562;28;20062;-76
2021/12/01 03:33:27;;;;;;;1.02;0.93;;;;;;;3.78;82.57;97245.59;2577934;28;20489;-78
2021/12/01 03:34:44;;;;;;;0.43;0.40;;;;;;;3.76;82.33;97252.50;2577795;28;20513;-80
2021/12/01 03:36:00;;;;;;;0.77;0.50;;;;;;;3.76;82.19;97255.09;2577940;28;20105;-74
2021/12/01 03:37:15;;;;;;;0.75;0.70;;;;;;;3.73;82.16;97249.16;2577620;28;20096;-76
2021/12/01 03:38:31;;;;;;;1.67;0.70;;;;;;;3.72;82.21;97245.69;2578072;28;20429;-76
2021/12/01 03:39:47;;;;;;;1.00;0.60;;;;;;;3.69;82.25;97250.94;2577596;28;20058;-74
2021/12/01 03:41:02;;;;;;;0.40;0.40;;;;;;;3.71;82.17;97246.56;2577871;28;20054;-77
2021/12/01 03:42:18;;;;;;;1.58;0.90;;;;;;;3.65;82.52;97244.97;2577995;28;20417;-74
2021/12/01 03:43:34;;;;;;;0.88;0.60;;;;;;;3.66;81.57;97248.41;2577744;28;20054;-75
2021/12/01 03:44:49;;;;;;;1.02;0.68;;;;;;;3.68;82.07;97239.72;2577639;28;20050;-77
2021/12/01 03:46:05;;;;;;;0.70;0.70;;;;;;;3.71;82.49;97243.16;2577910;28;20101;-77
2021/12/01 03:47:21;;;;;;;0.50;0.50;;;;;;;3.71;82.11;97237.97;2577972;28;20050;-75
2021/12/01 03:48:37;;;;;;;0.93;0.75;;;;;;;3.67;82.37;97240.59;2577576;28;20061;-75
2021/12/01 03:49:53;;;;;;;0.65;0.60;;;;;;;3.69;82.40;97232.81;2577570;28;20046;-76
2021/12/01 03:51:09;;;;;;;0.70;0.70;;;;;;;3.74;82.15;97230.16;2577833;28;20050;-76
2021/12/01 03:52:24;;;;;;;0.60;0.57;;;;;;;3.72;81.71;97237.94;2577730;28;20043;-75
2021/12/01 03:53:40;;;;;;;0.40;0.40;;;;;;;3.74;81.74;97236.16;2577642;28;20101;-75
2021/12/01 03:54:56;;;;;;;0.73;0.70;;;;;;;3.77;81.77;97230.06;2577590;28;20050;-75
2021/12/01 03:56:11;;;;;;;1.17;0.90;;;;;;;3.73;81.58;97221.50;2578285;28;20047;-75
2021/12/01 03:57:27;;;;;;;1.02;0.70;;;;;;;3.70;81.45;97229.34;2577859;28;20454;-75
2021/12/01 03:58:43;;;;;;;0.77;0.70;;;;;;;3.68;82.04;97228.53;2577276;28;20132;-75
2021/12/01 03:59:58;;;;;;;1.27;0.75;;;;;;;3.65;81.86;97218.25;2577738;28;20061;-75
2021/12/01 04:01:14;;;;;;;1.02;0.70;;;;;;;3.67;82.07;97221.66;2577638;28;20054;-75
2021/12/01 04:02:30;;;;;;;0.60;0.60;;;;;;;3.69;81.93;97217.28;2577675;28;20386;-77
2021/12/01 04:03:46;;;;;;;0.60;0.60;;;;;;;3.65;81.45;97213.91;2577678;28;20046;-75
2021/12/01 04:05:02;;;;;;;0.60;0.60;;;;;;;3.61;81.66;97216.56;2577806;28;20050;-75
2021/12/01 04:06:18;;;;;;;0.60;0.60;;;;;;;3.61;81.64;97208.81;2577520;28;20376;-75
2021/12/01 04:07:33;;;;;;;0.85;0.80;;;;;;;3.60;81.85;97210.56;2577993;28;20150;-76
2021/12/01 04:08:50;;;;;;;1.25;0.60;;;;;;;3.63;81.73;97210.50;2577711;28;20046;-75
2021/12/01 04:10:09;;;;;;;0.50;0.50;;;;;;;3.60;81.75;97200.22;2578166;28;20097;-75
2021/12/01 04:11:25;;;;;;;0.47;0.47;;;;;;;3.55;81.84;97196.00;2578847;28;20062;-75
2021/12/01 04:12:42;;;;;;;0.32;0.25;;;;;;;3.56;81.62;97192.53;2588728;28;20061;-78
2021/12/01 04:13:58;;;;;;;1.10;0.80;;;;;;;3.52;82.11;97192.59;2584888;28;20133;-75
2021/12/01 04:15:14;;;;;;;0.77;0.73;;;;;;;3.54;82.25;97187.38;2579314;28;20058;-75
2021/12/01 04:16:29;;;;;;;0.50;0.50;;;;;;;3.54;82.01;97189.97;2578995;28;20138;-75
2021/12/01 04:17:45;;;;;;;0.70;0.70;;;;;;;3.50;82.13;97183.16;2579106;28;20061;-75
2021/12/01 04:19:01;;;;;;;1.27;0.70;;;;;;;3.51;82.00;97182.28;2579509;28;20054;-75
2021/12/01 04:20:18;;;;;;;0.68;0.60;;;;;;;3.51;81.89;97177.97;2579805;28;20532;-75
2021/12/01 04:21:34;;;;;;;0.52;0.50;;;;;;;3.52;82.16;97177.06;2579324;28;20050;-76
2021/12/01 04:22:50;;;;;;;0.65;0.60;;;;;;;3.52;82.03;97183.97;2579248;28;20133;-75
2021/12/01 04:24:07;;;;;;;0.80;0.80;;;;;;;3.52;82.13;97177.06;2579311;28;20058;-75
2021/12/01 04:25:22;;;;;;;0.50;0.32;;;;;;;3.50;81.74;97159.88;2579503;28;20618;-75
2021/12/01 04:26:38;;;;;;;1.75;0.70;;;;;;;3.49;81.99;97169.38;2579217;28;20046;-75
2021/12/01 04:27:54;;;;;;;0.60;0.60;;;;;;;3.49;82.25;97166.78;2578897;28;20078;-76
2021/12/01 04:29:10;;;;;;;2.05;0.70;;;;;;;3.53;81.98;97162.38;2578610;28;20559;-75
2021/12/01 04:30:26;;;;;;;0.77;0.68;;;;;;;3.52;82.10;97158.97;2578709;28;20047;-76
2021/12/01 04:31:42;;;;;;;0.93;0.70;;;;;;;3.53;82.05;97160.66;2577861;28;20074;-75
2021/12/01 04:32:58;;;;;;;0.77;0.60;;;;;;;3.56;81.82;97159.72;2579336;28;20133;-75
2021/12/01 04:34:14;;;;;;;0.43;0.43;;;;;;;3.56;81.56;97151.97;2579365;28;20061;-76
2021/12/01 04:35:30;;;;;;;0.80;0.70;;;;;;;3.54;81.83;97153.72;2579292;28;20053;-75
2021/12/01 04:36:48;;;;;;;1.15;0.70;;;;;;;3.54;81.75;97151.16;2579412;28;20408;-75
2021/12/01 04:38:04;;;;;;;0.70;0.60;;;;;;;3.57;81.58;97153.69;2578932;28;20086;-75
2021/12/01 04:39:20;;;;;;;0.30;0.30;;;;;;;3.56;81.71;97154.56;2579379;28;20097;-75
2021/12/01 04:40:36;;;;;;;0.80;0.60;;;;;;;3.56;81.97;97158.88;2579053;28;20140;-75
2021/12/01 04:42:13;;;;;;;0.68;0.50;;;;;;;3.48;81.65;97152.13;2578955;28;20054;-79
2021/12/01 04:43:28;;;;;;;0.50;0.30;;;;;;;3.53;81.04;97152.03;2579268;28;20524;-75
2021/12/01 04:44:44;;;;;;;0.60;0.60;;;;;;;3.54;81.92;97153.72;2578332;28;20054;-75
2021/12/01 04:46:00;;;;;;;0.50;0.50;;;;;;;3.56;82.10;97159.72;2578878;28;20077;-75
2021/12/01 04:47:18;;;;;;;0.50;0.50;;;;;;;3.56;82.08;97164.06;2578736;28;20046;-79
2021/12/01 04:48:34;;;;;;;0.50;0.50;;;;;;;3.50;82.00;97163.31;2578914;28;20057;-75
2021/12/01 04:49:49;;;;;;;0.60;0.50;;;;;;;3.55;81.55;97170.13;2578605;28;20054;-76
2021/12/01 04:51:05;;;;;;;0.60;0.60;;;;;;;3.57;82.15;97173.53;2579669;28;20073;-76
2021/12/01 04:52:21;;;;;;;0.60;0.60;;;;;;;3.52;81.96;97168.44;2578927;28;20053;-76
2021/12/01 04:53:38;;;;;;;0.82;0.70;;;;;;;3.53;82.02;97167.56;2579282;28;20117;-75
2021/12/01 04:54:53;;;;;;;1.60;1.40;;;;;;;3.55;82.11;97175.31;2578667;28;20481;-76
2021/12/01 04:56:09;;;;;;;2.55;0.80;;;;;;;3.52;82.31;97158.97;2578783;28;20116;-75
2021/12/01 04:57:25;;;;;;;0.60;0.60;;;;;;;3.55;81.91;97162.38;2579543;28;20520;-75
2021/12/01 04:58:40;;;;;;;0.80;0.60;;;;;;;3.52;81.38;97158.97;2578851;28;20050;-76
2021/12/01 04:59:56;;;;;;;1.10;0.80;;;;;;;3.55;81.57;97162.38;2578581;28;20046;-76
2021/12/01 05:01:12;;;;;;;0.47;0.47;;;;;;;3.57;81.72;97158.88;2579312;28;20046;-76
2021/12/01 05:02:27;;;;;;;0.50;0.50;;;;;;;3.55;81.42;97158.03;2578853;28;20097;-75
2021/12/01 05:03:43;;;;;;;0.35;0.35;;;;;;;3.55;81.42;97157.19;2578912;28;20046;-75
2021/12/01 05:04:59;;;;;;;0.60;0.52;;;;;;;3.56;81.89;97154.56;2578466;28;20050;-75
2021/12/01 05:06:16;;;;;;;0.68;0.60;;;;;;;3.57;81.64;97153.69;2578337;28;20112;-75
2021/12/01 05:07:32;;;;;;;0.80;0.50;;;;;;;3.61;81.91;97146.69;2578619;28;20069;-75
2021/12/01 05:08:47;;;;;;;0.80;0.70;;;;;;;3.58;82.14;97139.88;2578886;28;20468;-75
2021/12/01 05:10:04;;;;;;;0.70;0.70;;;;;;;3.57;81.62;97134.72;2578841;28;20409;-75
2021/12/01 05:11:20;;;;;;;0.47;0.47;;;;;;;3.59;81.40;97143.28;2578469;28;20062;-75
2021/12/01 05:12:37;;;;;;;0.40;0.40;;;;;;;3.59;80.85;97138.13;2577320;28;20489;-74
2021/12/01 05:13:53;;;;;;;0.98;0.50;;;;;;;3.61;81.43;97141.53;2578408;28;20054;-75
2021/12/01 05:15:10;;;;;;;0.90;0.60;;;;;;;3.58;81.37;97144.19;2579073;28;20065;-75
2021/12/01 05:16:26;;;;;;;0.25;0.25;;;;;;;3.55;81.09;97146.84;2579012;28;20050;-75
2021/12/01 05:17:41;;;;;;;1.75;0.60;;;;;;;3.57;81.42;97142.47;2578866;28;20057;-75
2021/12/01 05:18:57;;;;;;;0.40;0.40;;;;;;;3.62;81.10;97138.03;2578983;28;20054;-75
2021/12/01 05:20:13;;;;;;;0.30;0.30;;;;;;;3.66;80.82;97137.13;2578495;28;20069;-75
2021/12/01 05:21:28;;;;;;;0.40;0.40;;;;;;;3.61;80.93;97133.75;2578429;28;20057;-75
2021/12/01 05:22:44;;;;;;;0.55;0.40;;;;;;;3.65;81.00;97135.41;2578600;28;20663;-76
2021/12/01 05:24:00;;;;;;;0.50;0.50;;;;;;;3.68;80.89;97123.25;2579045;28;20466;-76
2021/12/01 05:25:16;;;;;;;0.50;0.50;;;;;;;3.68;81.05;97130.16;2579067;28;20055;-75
2021/12/01 05:26:32;;;;;;;0.95;0.70;;;;;;;3.69;80.79;97134.47;2578858;28;20125;-76
2021/12/01 05:27:48;;;;;;;0.68;0.68;;;;;;;3.71;81.17;97132.69;2579046;28;20057;-76
2021/12/01 05:29:05;;;;;;;0.50;0.50;;;;;;;3.70;80.78;97132.69;2578585;28;20054;-75
2021/12/01 05:30:21;;;;;;;1.30;0.82;;;;;;;3.67;80.83;97131.06;2578420;28;20059;-75
2021/12/01 05:31:37;;;;;;;0.68;0.57;;;;;;;3.68;80.85;97122.41;2577208;28;20054;-75
2021/12/01 05:32:52;;;;;;;0.32;0.30;;;;;;;3.71;81.20;97126.66;2579056;28;20073;-75
2021/12/01 05:34:08;;;;;;;0.43;0.43;;;;;;;3.73;80.57;97128.31;2577804;28;20105;-77
2021/12/01 05:35:24;;;;;;;0.40;0.32;;;;;;;3.74;80.46;97124.00;2577953;28;20171;-75
2021/12/01 05:36:40;;;;;;;0.70;0.40;;;;;;;3.72;80.37;97118.84;2578724;28;20104;-75
2021/12/01 05:37:55;;;;;;;0.40;0.38;;;;;;;3.73;80.78;97120.56;2578673;28;20050;-77
2021/12/01 05:39:11;;;;;;;0.52;0.50;;;;;;;3.71;80.57;97124.91;2578767;28;20046;-75
2021/12/01 05:40:27;;;;;;;0.65;0.50;;;;;;;3.72;80.92;97120.59;2578589;28;20051;-76
2021/12/01 05:41:42;;;;;;;0.40;0.40;;;;;;;3.70;80.78;97123.22;2578724;28;20054;-75
2021/12/01 05:42:58;;;;;;;0.55;0.50;;;;;;;3.70;80.91;97120.63;2578732;28;20050;-76
2021/12/01 05:44:14;;;;;;;2.03;0.60;;;;;;;3.67;81.23;97120.69;2578521;28;20108;-75
2021/12/01 05:45:30;;;;;;;3.65;1.30;;;;;;;3.68;81.16;97117.22;2578438;28;20104;-75
2021/12/01 05:46:45;;;;;;;3.78;1.33;;;;;;;3.70;81.28;97109.41;2578478;28;20065;-75
2021/12/01 05:48:01;;;;;;;2.45;0.70;;;;;;;3.68;81.17;97112.88;2577925;28;20078;-75
2021/12/01 05:49:17;;;;;;;2.28;0.65;;;;;;;3.71;81.21;97105.97;2578059;28;20073;-75
2021/12/01 05:50:33;;;;;;;0.50;0.40;;;;;;;3.72;80.97;97112.84;2578127;28;20057;-75
2021/12/01 05:51:48;;;;;;;0.70;0.38;;;;;;;3.73;80.84;97117.13;2578452;28;20507;-75
2021/12/01 05:53:04;;;;;;;0.50;0.50;;;;;;;3.73;80.77;97114.53;2578155;28;20564;-75
2021/12/01 05:54:20;;;;;;;0.50;0.50;;;;;;;3.73;81.43;97120.56;2578389;28;20409;-76
2021/12/01 05:55:37;;;;;;;1.27;0.90;;;;;;;3.70;81.41;97115.44;2578358;28;20433;-75
2021/12/01 05:56:52;;;;;;;0.43;0.40;;;;;;;3.75;81.27;97113.59;2578177;28;20288;-76
2021/12/01 05:58:08;;;;;;;0.50;0.50;;;;;;;3.70;81.85;97123.22;2578567;28;20053;-75
2021/12/01 05:59:23;;;;;;;0.40;0.40;;;;;;;3.69;81.37;97116.34;2578217;28;20516;-76
2021/12/01 06:00:39;;;;;;;0.52;0.50;;;;;;;3.72;80.88;97118.84;2577937;28;20092;-75
2021/12/01 06:01:55;;;;;;;0.40;0.40;;;;;;;3.76;80.88;97114.47;2578700;28;20856;-75
2021/12/01 06:03:11;;;;;;;0.60;0.60;;;;;;;3.71;81.44;97116.31;2578469;28;20057;-76
2021/12/01 06:04:27;;;;;;;1.00;0.60;;;;;;;3.77;81.82;97116.16;2578509;28;20050;-75
2021/12/01 06:05:44;;;;;;;1.33;0.63;;;;;;;3.76;81.26;97119.66;2578470;28;20414;-75
2021/12/01 06:06:59;;;;;;;0.68;0.68;;;;;;;3.72;81.70;97112.84;2578329;28;20038;-75
2021/12/01 06:08:15;;;;;;;0.50;0.50;;;;;;;3.72;81.79;97113.69;2578226;28;20088;-75
2021/12/01 06:09:31;;;;;;;0.43;0.43;;;;;;;3.72;81.89;97108.50;2578336;28;20520;-76
2021/12/01 06:10:46;;;;;;;1.95;0.80;;;;;;;3.73;82.25;97114.53;2578127;28;20987;-76